createdAt,value
2018-03-04T00:00:13.764Z,91.60
2018-03-04T00:02:40.880Z,91.80
2018-03-04T00:05:07.292Z,91.80
2018-03-04T00:07:33.712Z,92.00
2018-03-04T00:10:00.081Z,92.00
2018-03-04T00:12:26.503Z,91.80
2018-03-04T00:14:52.906Z,91.90
2018-03-04T00:17:19.281Z,92.00
2018-03-04T00:19:45.694Z,92.20
2018-03-04T00:22:12.084Z,92.20
2018-03-04T00:24:38.476Z,92.20
2018-03-04T00:27:04.886Z,92.50
2018-03-04T00:29:31.304Z,92.60
2018-03-04T00:31:57.688Z,93.00
2018-03-04T00:34:24.874Z,92.80
2018-03-04T00:36:52.002Z,92.60
2018-03-04T00:39:18.476Z,92.60
2018-03-04T00:41:44.856Z,92.40
2018-03-04T00:44:11.311Z,92.00
2018-03-04T00:46:37.694Z,92.50
2018-03-04T00:49:04.080Z,92.50
2018-03-04T00:51:30.497Z,92.50
2018-03-04T00:53:56.909Z,92.50
2018-03-04T00:56:23.340Z,92.30
2018-03-04T00:58:50.482Z,92.30
2018-03-04T01:01:17.658Z,92.50
2018-03-04T01:03:44.048Z,92.50
2018-03-04T01:06:10.496Z,92.50
2018-03-04T01:08:37.649Z,92.10
2018-03-04T01:11:04.782Z,91.90
2018-03-04T01:13:31.930Z,91.90
2018-03-04T01:15:58.314Z,91.90
2018-03-04T01:18:24.706Z,91.70
2018-03-04T01:20:51.824Z,91.30
2018-03-04T01:23:18.200Z,91.30
2018-03-04T01:25:44.576Z,91.40
2018-03-04T01:28:11.017Z,91.00
2018-03-04T01:30:37.398Z,91.10
2018-03-04T01:33:03.755Z,91.40
2018-03-04T01:35:30.166Z,91.30
2018-03-04T01:37:56.584Z,91.10
2018-03-04T01:40:22.942Z,90.80
2018-03-04T01:42:49.357Z,91.00
2018-03-04T01:45:15.741Z,91.20
2018-03-04T01:47:42.111Z,91.10
2018-03-04T01:50:08.498Z,91.00
2018-03-04T01:52:34.878Z,91.30
2018-03-04T01:55:01.274Z,91.20
2018-03-04T01:57:28.425Z,91.30
2018-03-04T01:59:55.517Z,91.80
2018-03-04T02:02:21.951Z,91.80
2018-03-04T02:04:48.334Z,92.40
2018-03-04T02:07:15.496Z,93.00
2018-03-04T02:09:41.912Z,93.00
2018-03-04T02:12:09.025Z,92.70
2018-03-04T02:14:35.387Z,92.80
2018-03-04T02:17:01.756Z,93.00
2018-03-04T02:19:28.150Z,93.10
2018-03-04T02:21:55.262Z,94.20
2018-03-04T02:24:21.701Z,94.20
2018-03-04T02:26:48.080Z,94.40
2018-03-04T02:29:14.464Z,94.50
2018-03-04T02:31:40.847Z,94.10
2018-03-04T02:34:07.248Z,94.10
2018-03-04T02:36:34.411Z,93.60
2018-03-04T02:39:01.576Z,93.20
2018-03-04T02:41:27.954Z,93.20
2018-03-04T02:43:54.359Z,92.90
2018-03-04T02:46:20.752Z,92.60
2018-03-04T02:48:47.891Z,92.40
2018-03-04T02:51:15.032Z,93.00
2018-03-04T02:53:42.152Z,92.70
2018-03-04T02:56:08.498Z,92.80
2018-03-04T02:58:34.893Z,92.90
2018-03-04T03:01:02.009Z,92.60
2018-03-04T03:03:28.410Z,92.70
2018-03-04T03:05:54.759Z,92.50
2018-03-04T03:08:21.885Z,92.20
2018-03-04T03:10:48.273Z,92.20
2018-03-04T03:13:14.688Z,92.30
2018-03-04T03:15:41.062Z,92.10
2018-03-04T03:18:07.515Z,92.20
2018-03-04T03:20:33.893Z,91.80
2018-03-04T03:23:00.247Z,91.70
2018-03-04T03:25:26.633Z,91.60
2018-03-04T03:27:53.011Z,91.70
2018-03-04T03:30:19.401Z,91.90
2018-03-04T03:32:45.747Z,92.10
2018-03-04T03:35:12.169Z,92.20
2018-03-04T03:37:38.527Z,92.10
2018-03-04T03:40:04.918Z,92.10
2018-03-04T03:42:32.326Z,92.10
2018-03-04T03:44:58.681Z,92.10
2018-03-04T03:47:25.812Z,92.10
2018-03-04T03:49:52.182Z,92.10
2018-03-04T03:52:18.635Z,92.10
2018-03-04T03:54:45.002Z,92.10
2018-03-04T03:57:11.386Z,92.20
2018-03-04T03:59:37.772Z,92.40
2018-03-04T04:02:04.134Z,92.90
2018-03-04T04:04:30.540Z,93.20
2018-03-04T04:06:57.660Z,93.80
2018-03-04T04:09:24.083Z,93.50
2018-03-04T04:11:50.449Z,93.50
2018-03-04T04:14:16.844Z,93.60
2018-03-04T04:16:43.194Z,93.40
2018-03-04T04:19:09.638Z,93.60
2018-03-04T04:21:36.005Z,93.50
2018-03-04T04:24:02.407Z,93.30
2018-03-04T04:26:29.523Z,93.30
2018-03-04T04:28:55.882Z,93.30
2018-03-04T04:31:22.256Z,93.70
2018-03-04T04:33:48.641Z,93.80
2018-03-04T04:36:15.059Z,93.70
2018-03-04T04:38:41.446Z,93.70
2018-03-04T04:41:07.825Z,93.70
2018-03-04T04:43:34.230Z,93.50
2018-03-04T04:46:00.612Z,93.60
2018-03-04T04:48:27.780Z,93.70
2018-03-04T04:50:54.129Z,93.70
2018-03-04T04:53:20.494Z,93.60
2018-03-04T04:55:47.656Z,93.20
2018-03-04T04:58:14.782Z,93.10
2018-03-04T05:00:41.141Z,93.10
2018-03-04T05:03:08.260Z,93.20
2018-03-04T05:05:34.625Z,93.20
2018-03-04T05:08:01.773Z,93.70
2018-03-04T05:10:28.949Z,93.60
2018-03-04T05:12:55.343Z,93.60
2018-03-04T05:15:22.493Z,93.70
2018-03-04T05:17:49.605Z,93.40
2018-03-04T05:20:16.009Z,93.40
2018-03-04T05:22:42.358Z,93.60
2018-03-04T05:25:08.732Z,93.60
2018-03-04T05:27:35.137Z,93.30
2018-03-04T05:30:01.557Z,93.40
2018-03-04T05:32:27.929Z,93.20
2018-03-04T05:34:55.035Z,92.80
2018-03-04T05:37:21.398Z,92.70
2018-03-04T05:39:48.514Z,92.90
2018-03-04T05:42:14.934Z,92.90
2018-03-04T05:44:41.308Z,93.00
2018-03-04T05:47:08.480Z,93.60
2018-03-04T05:49:34.859Z,93.60
2018-03-04T05:52:02.105Z,93.50
2018-03-04T05:54:28.476Z,93.80
2018-03-04T05:56:55.621Z,93.60
2018-03-04T05:59:22.746Z,93.60
2018-03-04T06:01:49.097Z,93.60
2018-03-04T06:04:16.219Z,93.80
2018-03-04T06:06:42.554Z,93.80
2018-03-04T06:09:08.897Z,93.80
2018-03-04T06:11:35.261Z,93.70
2018-03-04T06:14:01.654Z,93.70
2018-03-04T06:16:28.756Z,93.80
2018-03-04T06:18:55.161Z,93.80
2018-03-04T06:21:21.585Z,94.00
2018-03-04T06:23:48.697Z,94.20
2018-03-04T06:26:15.081Z,94.20
2018-03-04T06:28:41.448Z,94.10
2018-03-04T06:31:07.848Z,93.90
2018-03-04T06:33:34.189Z,94.00
2018-03-04T06:36:00.586Z,93.60
2018-03-04T06:38:26.998Z,93.40
2018-03-04T06:40:54.135Z,93.60
2018-03-04T06:43:20.533Z,93.60
2018-03-04T06:45:46.902Z,93.60
2018-03-04T06:48:13.433Z,94.00
2018-03-04T06:50:39.807Z,94.10
2018-03-04T06:53:06.211Z,94.30
2018-03-04T06:55:33.333Z,94.20
2018-03-04T06:57:59.712Z,94.20
2018-03-04T07:00:26.094Z,94.30
2018-03-04T07:02:52.492Z,94.50
2018-03-04T07:05:18.841Z,94.20
2018-03-04T07:07:45.252Z,94.40
2018-03-04T07:10:11.659Z,94.30
2018-03-04T07:12:38.062Z,94.30
2018-03-04T07:15:05.205Z,94.20
2018-03-04T07:17:31.581Z,94.20
2018-03-04T07:19:58.033Z,93.90
2018-03-04T07:22:24.374Z,93.80
2018-03-04T07:24:50.785Z,93.80
2018-03-04T07:27:17.160Z,93.80
2018-03-04T07:29:43.576Z,93.90
2018-03-04T07:32:09.997Z,93.90
2018-03-04T07:34:36.442Z,93.90
2018-03-04T07:37:02.834Z,93.90
2018-03-04T07:39:29.200Z,93.90
2018-03-04T07:41:55.636Z,93.80
2018-03-04T07:44:22.006Z,93.40
2018-03-04T07:46:48.446Z,93.30
2018-03-04T07:49:14.849Z,93.00
2018-03-04T07:51:41.955Z,92.70
2018-03-04T07:54:08.341Z,92.70
2018-03-04T07:56:34.742Z,92.70
2018-03-04T07:59:01.125Z,92.20
2018-03-04T08:01:27.463Z,92.20
2018-03-04T08:03:53.871Z,92.30
2018-03-04T08:06:20.247Z,92.30
2018-03-04T08:08:46.662Z,92.10
2018-03-04T08:11:13.062Z,92.20
2018-03-04T08:13:39.453Z,92.00
2018-03-04T08:16:05.863Z,92.40
2018-03-04T08:18:32.240Z,92.00
2018-03-04T08:20:59.357Z,91.90
2018-03-04T08:23:25.737Z,92.00
2018-03-04T08:25:52.255Z,91.80
2018-03-04T08:28:31.993Z,91.50
2018-03-04T08:30:58.450Z,91.00
2018-03-04T08:33:24.829Z,90.30
2018-03-04T08:35:51.333Z,90.30
2018-03-04T08:38:17.722Z,90.00
2018-03-04T08:40:44.155Z,90.10
2018-03-04T08:43:11.316Z,88.60
2018-03-04T08:45:37.705Z,88.60
2018-03-04T08:48:04.101Z,88.50
2018-03-04T08:50:30.489Z,88.70
2018-03-04T08:52:57.619Z,87.70
2018-03-04T08:55:24.000Z,87.70
2018-03-04T08:57:50.463Z,86.80
2018-03-04T09:00:16.858Z,86.30
2018-03-04T09:02:43.268Z,86.30
2018-03-04T09:05:09.657Z,85.50
2018-03-04T09:07:36.026Z,84.90
2018-03-04T09:10:02.492Z,84.20
2018-03-04T09:12:28.897Z,83.20
2018-03-04T09:14:55.295Z,82.90
2018-03-04T09:17:21.684Z,82.00
2018-03-04T09:19:48.122Z,80.40
2018-03-04T09:22:14.499Z,80.10
2018-03-04T09:24:41.650Z,76.90
2018-03-04T09:27:08.872Z,77.30
2018-03-04T09:29:35.268Z,77.30
2018-03-04T09:32:01.802Z,77.50
2018-03-04T09:34:28.202Z,75.50
2018-03-04T09:36:55.521Z,74.20
2018-03-04T09:39:21.967Z,74.30
2018-03-04T09:41:48.402Z,73.90
2018-03-04T09:44:14.921Z,73.40
2018-03-04T09:46:41.281Z,73.90
2018-03-04T09:49:09.474Z,71.20
2018-03-04T09:51:36.896Z,71.10
2018-03-04T09:54:04.110Z,70.30
2018-03-04T09:56:30.536Z,70.30
2018-03-04T09:58:56.976Z,70.90
2018-03-04T10:01:23.397Z,70.50
2018-03-04T10:03:49.834Z,70.60
2018-03-04T10:06:16.374Z,67.90
2018-03-04T10:08:42.842Z,66.10
2018-03-04T10:11:09.997Z,66.30
2018-03-04T10:13:37.090Z,65.90
2018-03-04T10:16:03.509Z,65.90
2018-03-04T10:18:29.944Z,65.00
2018-03-04T10:20:56.971Z,64.40
2018-03-04T10:23:23.380Z,62.80
2018-03-04T10:25:50.542Z,62.80
2018-03-04T10:28:17.083Z,62.80
2018-03-04T10:30:43.498Z,61.90
2018-03-04T10:33:09.914Z,61.80
2018-03-04T10:35:37.239Z,60.10
2018-03-04T10:38:03.615Z,60.50
2018-03-04T10:40:30.836Z,60.80
2018-03-04T10:42:57.241Z,60.80
2018-03-04T10:45:23.684Z,58.90
2018-03-04T10:47:50.099Z,60.20
2018-03-04T10:50:16.667Z,60.10
2018-03-04T10:52:43.050Z,59.60
2018-03-04T10:55:09.545Z,58.80
2018-03-04T10:57:36.054Z,57.30
2018-03-04T11:00:02.601Z,56.70
2018-03-04T11:02:35.152Z,56.20
2018-03-04T11:05:01.656Z,56.00
2018-03-04T11:07:28.219Z,56.50
2018-03-04T11:09:54.665Z,57.60
2018-03-04T11:12:21.083Z,57.30
2018-03-04T11:14:47.562Z,57.70
2018-03-04T11:17:14.708Z,57.50
2018-03-04T11:19:41.900Z,56.00
2018-03-04T11:22:08.374Z,56.00
2018-03-04T11:24:34.769Z,54.50
2018-03-04T11:27:01.175Z,54.50
2018-03-04T11:29:27.594Z,54.50
2018-03-04T11:31:53.998Z,54.40
2018-03-04T11:34:20.439Z,53.90
2018-03-04T11:36:46.890Z,53.60
2018-03-04T11:39:13.290Z,53.70
2018-03-04T11:41:39.773Z,53.70
2018-03-04T11:44:06.148Z,53.10
2018-03-04T11:46:32.564Z,52.80
2018-03-04T11:48:59.061Z,52.80
2018-03-04T11:51:25.444Z,53.00
2018-03-04T11:53:51.864Z,52.50
2018-03-04T11:56:18.291Z,50.80
2018-03-04T11:58:44.704Z,51.20
2018-03-04T12:01:11.087Z,50.70
2018-03-04T12:03:38.234Z,49.30
2018-03-04T12:06:04.681Z,49.30
2018-03-04T12:08:31.082Z,48.40
2018-03-04T12:10:57.518Z,48.30
2018-03-04T12:13:23.907Z,49.40
2018-03-04T12:15:50.327Z,49.40
2018-03-04T12:18:16.689Z,48.40
2018-03-04T12:20:43.169Z,46.60
2018-03-04T12:23:09.552Z,46.70
2018-03-04T12:25:36.179Z,49.20
2018-03-04T12:28:03.337Z,47.30
2018-03-04T12:30:29.718Z,47.30
2018-03-04T12:32:56.306Z,46.30
2018-03-04T12:35:22.668Z,46.70
2018-03-04T12:37:49.145Z,46.60
2018-03-04T12:40:15.534Z,46.70
2018-03-04T12:42:42.679Z,44.10
2018-03-04T12:45:09.083Z,44.20
2018-03-04T12:47:35.507Z,44.70
2018-03-04T12:50:01.905Z,43.90
2018-03-04T12:52:28.376Z,44.90
2018-03-04T12:54:54.741Z,44.50
2018-03-04T12:57:21.916Z,43.70
2018-03-04T12:59:48.320Z,43.10
2018-03-04T13:02:15.452Z,42.80
2018-03-04T13:04:41.879Z,42.70
2018-03-04T13:07:08.328Z,43.60
2018-03-04T13:09:35.511Z,42.40
2018-03-04T13:12:01.907Z,42.40
2018-03-04T13:14:28.343Z,42.90
2018-03-04T13:16:55.499Z,42.70
2018-03-04T13:19:22.006Z,42.60
2018-03-04T13:21:48.456Z,43.50
2018-03-04T13:24:15.585Z,44.00
2018-03-04T13:26:41.996Z,44.00
2018-03-04T13:29:08.433Z,42.60
2018-03-04T13:31:34.882Z,43.40
2018-03-04T13:34:02.057Z,43.40
2018-03-04T13:36:28.559Z,43.40
2018-03-04T13:38:55.004Z,42.40
2018-03-04T13:41:21.485Z,43.00
2018-03-04T13:43:47.895Z,41.60
2018-03-04T13:46:14.287Z,41.80
2018-03-04T13:48:40.703Z,42.10
2018-03-04T13:51:07.912Z,43.80
2018-03-04T13:53:34.360Z,44.50
2018-03-04T13:56:00.817Z,43.00
2018-03-04T13:58:28.275Z,43.40
2018-03-04T14:00:54.699Z,43.40
2018-03-04T14:03:21.094Z,43.40
2018-03-04T14:05:47.505Z,43.30
2018-03-04T14:08:14.686Z,43.70
2018-03-04T14:10:41.121Z,44.40
2018-03-04T14:13:07.533Z,44.20
2018-03-04T14:15:33.990Z,43.70
2018-03-04T14:18:00.413Z,43.30
2018-03-04T14:20:26.825Z,43.80
2018-03-04T14:22:53.270Z,43.40
2018-03-04T14:25:19.805Z,44.00
2018-03-04T14:27:46.410Z,43.60
2018-03-04T14:30:12.889Z,43.80
2018-03-04T14:32:39.309Z,44.00
2018-03-04T14:35:05.789Z,44.20
2018-03-04T14:37:32.225Z,44.60
2018-03-04T14:39:59.371Z,45.50
2018-03-04T14:42:25.790Z,46.00
2018-03-04T14:44:52.295Z,45.00
2018-03-04T14:47:18.718Z,44.60
2018-03-04T14:49:45.159Z,45.70
2018-03-04T14:52:11.550Z,45.10
2018-03-04T14:54:37.960Z,45.20
2018-03-04T14:57:04.436Z,45.30
2018-03-04T14:59:30.953Z,45.60
2018-03-04T15:01:58.226Z,45.90
2018-03-04T15:04:24.717Z,45.80
2018-03-04T15:06:51.864Z,45.20
2018-03-04T15:09:18.268Z,45.20
2018-03-04T15:11:44.696Z,46.00
2018-03-04T15:14:11.112Z,45.70
2018-03-04T15:16:37.512Z,46.10
2018-03-04T15:19:03.928Z,45.50
2018-03-04T15:21:31.047Z,46.60
2018-03-04T15:23:57.495Z,46.60
2018-03-04T15:26:24.023Z,45.50
2018-03-04T15:28:51.192Z,45.30
2018-03-04T15:31:18.319Z,45.60
2018-03-04T15:33:44.703Z,45.60
2018-03-04T15:36:11.216Z,46.60
2018-03-04T15:38:37.629Z,45.60
2018-03-04T15:41:04.134Z,45.80
2018-03-04T15:43:30.592Z,45.50
2018-03-04T15:45:57.257Z,46.40
2018-03-04T15:48:23.705Z,46.10
2018-03-04T15:50:50.093Z,46.20
2018-03-04T15:53:17.298Z,46.20
2018-03-04T15:55:43.706Z,46.20
2018-03-04T15:58:10.255Z,46.10
2018-03-04T16:00:36.654Z,46.00
2018-03-04T16:03:03.782Z,46.40
2018-03-04T16:05:30.964Z,46.40
2018-03-04T16:07:57.496Z,46.20
2018-03-04T16:10:23.899Z,47.40
2018-03-04T16:12:51.071Z,48.00
2018-03-04T16:15:18.248Z,47.10
2018-03-04T16:17:44.708Z,47.10
2018-03-04T16:20:11.163Z,47.20
2018-03-04T16:22:37.570Z,47.30
2018-03-04T16:25:04.085Z,47.80
2018-03-04T16:27:30.531Z,47.90
2018-03-04T16:29:56.986Z,47.80
2018-03-04T16:32:23.468Z,48.40
2018-03-04T16:34:49.955Z,48.30
2018-03-04T16:37:16.378Z,48.10
2018-03-04T16:39:42.872Z,48.90
2018-03-04T16:42:09.363Z,48.70
2018-03-04T16:44:35.871Z,49.20
2018-03-04T16:47:03.054Z,49.10
2018-03-04T16:49:29.507Z,49.20
2018-03-04T16:51:55.945Z,49.00
2018-03-04T16:54:23.077Z,49.00
2018-03-04T16:56:49.545Z,49.00
2018-03-04T16:59:15.926Z,49.50
2018-03-04T17:01:43.164Z,50.90
2018-03-04T17:04:10.326Z,51.20
2018-03-04T17:06:37.469Z,51.50
2018-03-04T17:09:04.626Z,51.80
2018-03-04T17:11:31.817Z,51.70
2018-03-04T17:13:58.234Z,51.70
2018-03-04T17:16:24.689Z,52.10
2018-03-04T17:18:51.236Z,52.60
2018-03-04T17:21:17.700Z,52.50
2018-03-04T17:23:44.172Z,52.90
2018-03-04T17:26:10.616Z,52.70
2018-03-04T17:28:37.002Z,52.80
2018-03-04T17:31:03.538Z,52.80
2018-03-04T17:33:29.924Z,52.70
2018-03-04T17:35:56.370Z,52.80
2018-03-04T17:38:22.823Z,53.00
2018-03-04T17:40:49.986Z,53.00
2018-03-04T17:43:16.432Z,53.00
2018-03-04T17:45:43.065Z,53.20
2018-03-04T17:48:09.481Z,53.70
2018-03-04T17:50:35.931Z,53.60
2018-03-04T17:53:02.362Z,54.40
2018-03-04T17:55:28.787Z,54.40
2018-03-04T17:57:55.261Z,54.50
2018-03-04T18:00:21.671Z,54.50
2018-03-04T18:02:48.071Z,54.50
2018-03-04T18:05:14.434Z,54.50
2018-03-04T18:07:40.848Z,54.40
2018-03-04T18:10:07.251Z,54.50
2018-03-04T18:12:34.412Z,54.50
2018-03-04T18:15:00.906Z,54.60
2018-03-04T18:17:27.306Z,54.60
2018-03-04T18:19:53.751Z,54.70
2018-03-04T18:22:20.161Z,55.30
2018-03-04T18:24:53.502Z,55.60
2018-03-04T18:27:19.908Z,55.60
2018-03-04T18:29:46.396Z,55.70
2018-03-04T18:32:12.925Z,55.50
2018-03-04T18:34:39.357Z,55.60
2018-03-04T18:37:06.540Z,55.90
2018-03-04T18:39:32.952Z,55.90
2018-03-04T18:41:59.414Z,56.30
2018-03-04T18:44:25.829Z,56.30
2018-03-04T18:46:52.286Z,56.10
2018-03-04T18:49:18.716Z,55.80
2018-03-04T18:51:45.176Z,55.50
2018-03-04T18:54:12.335Z,55.60
2018-03-04T18:56:38.774Z,55.60
2018-03-04T18:59:05.957Z,56.40
2018-03-04T19:01:33.154Z,56.70
2018-03-04T19:03:59.563Z,56.70
2018-03-04T19:06:25.979Z,57.30
2018-03-04T19:08:52.360Z,57.40
2018-03-04T19:11:19.588Z,57.70
2018-03-04T19:13:47.332Z,57.90
2018-03-04T19:16:14.439Z,58.10
2018-03-04T19:18:40.884Z,58.20
2018-03-04T19:21:08.006Z,58.40
2018-03-04T19:23:34.481Z,58.40
2018-03-04T19:26:00.952Z,58.60
2018-03-04T19:28:27.451Z,58.50
2018-03-04T19:30:53.979Z,58.50
2018-03-04T19:33:21.046Z,58.70
2018-03-04T19:35:47.531Z,58.80
2018-03-04T19:38:14.062Z,59.40
2018-03-04T19:40:41.264Z,59.60
2018-03-04T19:43:07.747Z,59.60
2018-03-04T19:45:34.196Z,59.90
2018-03-04T19:48:00.761Z,60.20
2018-03-04T19:50:27.244Z,60.20
2018-03-04T19:52:53.832Z,60.70
2018-03-04T19:55:21.015Z,61.00
2018-03-04T19:57:48.222Z,61.60
2018-03-04T20:00:14.751Z,61.60
2018-03-04T20:02:41.228Z,61.50
2018-03-04T20:05:08.391Z,61.70
2018-03-04T20:07:34.909Z,61.70
2018-03-04T20:10:01.492Z,61.40
2018-03-04T20:12:28.680Z,61.80
2018-03-04T20:14:55.184Z,61.80
2018-03-04T20:17:21.569Z,62.70
2018-03-04T20:19:48.745Z,62.10
2018-03-04T20:22:16.165Z,62.10
2018-03-04T20:24:42.661Z,61.90
2018-03-04T20:27:09.058Z,61.80
2018-03-04T20:29:35.533Z,62.10
2018-03-04T20:32:02.069Z,62.60
2018-03-04T20:34:28.527Z,62.60
2018-03-04T20:36:55.746Z,62.70
2018-03-04T20:39:22.965Z,63.30
2018-03-04T20:41:49.449Z,63.30
2018-03-04T20:44:16.667Z,63.50
2018-03-04T20:46:43.232Z,63.50
2018-03-04T20:49:10.365Z,62.70
2018-03-04T20:51:36.873Z,62.50
2018-03-04T20:54:03.347Z,62.70
2018-03-04T20:56:29.872Z,64.00
2018-03-04T20:58:56.336Z,63.50
2018-03-04T21:01:22.882Z,63.30
2018-03-04T21:03:49.999Z,63.50
2018-03-04T21:06:17.352Z,63.30
2018-03-04T21:08:44.539Z,64.20
2018-03-04T21:11:10.983Z,64.20
2018-03-04T21:13:37.473Z,64.50
2018-03-04T21:16:04.646Z,64.10
2018-03-04T21:18:31.183Z,64.20
2018-03-04T21:20:57.485Z,64.10
2018-03-04T21:23:24.676Z,64.20
2018-03-04T21:25:51.165Z,64.10
2018-03-04T21:28:18.350Z,63.80
2018-03-04T21:30:44.771Z,63.80
2018-03-04T21:33:11.220Z,63.70
2018-03-04T21:35:37.656Z,63.50
2018-03-04T21:38:04.097Z,63.00
2018-03-04T21:40:30.607Z,62.80
2018-03-04T21:42:57.090Z,62.50
2018-03-04T21:45:24.450Z,63.00
2018-03-04T21:47:51.629Z,63.60
2018-03-04T21:50:18.052Z,63.60
2018-03-04T21:52:44.528Z,63.90
2018-03-04T21:55:10.958Z,63.80
2018-03-04T21:57:37.432Z,63.60
2018-03-04T22:00:04.684Z,64.20
2018-03-04T22:02:31.902Z,63.60
2018-03-04T22:04:58.337Z,63.60
2018-03-04T22:07:24.822Z,63.30
2018-03-04T22:09:51.301Z,63.40
2018-03-04T22:12:18.493Z,65.00
2018-03-04T22:14:44.987Z,64.50
2018-03-04T22:17:11.428Z,65.80
2018-03-04T22:19:37.870Z,64.70
2018-03-04T22:22:05.035Z,64.50
2018-03-04T22:24:31.484Z,64.40
2018-03-04T22:26:57.944Z,64.00
2018-03-04T22:29:24.360Z,63.60
2018-03-04T22:31:50.827Z,63.30
2018-03-04T22:34:17.240Z,63.10
2018-03-04T22:36:43.683Z,63.10
2018-03-04T22:39:10.107Z,63.10
2018-03-04T22:41:36.737Z,63.20
2018-03-04T22:44:03.150Z,63.50
2018-03-04T22:46:29.582Z,63.50
2018-03-04T22:48:56.007Z,63.60
2018-03-04T22:51:22.449Z,64.10
2018-03-04T22:53:48.891Z,64.10
2018-03-04T22:56:15.280Z,64.70
2018-03-04T22:58:41.710Z,64.70
2018-03-04T23:01:08.139Z,65.00
2018-03-04T23:03:35.323Z,64.90
2018-03-04T23:06:01.743Z,64.90
2018-03-04T23:08:28.169Z,65.00
2018-03-04T23:10:54.590Z,65.10
2018-03-04T23:13:21.063Z,64.90
2018-03-04T23:15:47.561Z,64.80
2018-03-04T23:18:13.942Z,64.90
2018-03-04T23:20:40.366Z,65.10
2018-03-04T23:23:06.847Z,65.30
2018-03-04T23:25:33.990Z,65.70
2018-03-04T23:28:01.182Z,65.90
2018-03-04T23:30:27.570Z,65.90
2018-03-04T23:32:54.047Z,66.80
2018-03-04T23:35:20.405Z,66.70
2018-03-04T23:37:46.830Z,66.70
2018-03-04T23:40:13.213Z,66.50
2018-03-04T23:42:39.757Z,66.60
2018-03-04T23:45:06.156Z,66.50
2018-03-04T23:47:33.284Z,66.30
2018-03-04T23:49:59.681Z,66.40
2018-03-04T23:52:26.155Z,66.30
2018-03-04T23:54:52.567Z,66.20
2018-03-04T23:57:19.002Z,66.20
2018-03-04T23:59:45.398Z,66.30
